createdAt,value
2022-08-11T00:01:06.076Z,102257.69
2022-08-11T00:03:42.484Z,102261.88
2022-08-11T00:06:11.505Z,102262.25
2022-08-11T00:08:38.840Z,102261.25
2022-08-11T00:11:08.462Z,102253.31
2022-08-11T00:13:42.670Z,102261.63
2022-08-11T00:16:20.192Z,102259.91
2022-08-11T00:18:53.126Z,102252.13
2022-08-11T00:21:56.947Z,102229.88
2022-08-11T00:24:18.486Z,102261.88
2022-08-11T00:26:50.168Z,102259.47
2022-08-11T00:29:20.697Z,102257.25
2022-08-11T00:32:00.154Z,102256.09
2022-08-11T00:34:29.898Z,102261.81
2022-08-11T00:37:09.418Z,102244.66
2022-08-11T00:39:43.814Z,102252.44
2022-08-11T00:42:38.233Z,102254.91
2022-08-11T00:45:30.038Z,102235.41
2022-08-11T00:48:12.006Z,102257.53
2022-08-11T00:51:01.559Z,102255.13
2022-08-11T00:53:44.354Z,102251.00
2022-08-11T00:56:25.505Z,102243.06
2022-08-11T00:59:34.344Z,102257.47
2022-08-11T01:02:37.828Z,102255.56
2022-08-11T01:05:38.626Z,102250.38
2022-08-11T01:08:20.771Z,102253.53
2022-08-11T01:11:04.836Z,102257.88
2022-08-11T01:13:57.162Z,102259.09
2022-08-11T01:17:05.055Z,102255.50
2022-08-11T01:20:45.475Z,102252.41
2022-08-11T01:23:21.419Z,102256.56
2022-08-11T01:26:11.923Z,102263.50
2022-08-11T01:29:24.459Z,102256.78
2022-08-11T01:31:56.901Z,102262.66
2022-08-11T01:34:26.907Z,102262.16
2022-08-11T01:37:13.724Z,102256.94
2022-08-11T01:39:45.952Z,102261.97
2022-08-11T01:43:31.341Z,102252.44
2022-08-11T01:46:06.217Z,102245.72
2022-08-11T01:48:45.153Z,102256.97
2022-08-11T01:51:30.264Z,102259.41
2022-08-11T01:54:05.886Z,102254.41
2022-08-11T01:57:00.526Z,102253.50
2022-08-11T01:59:37.175Z,102230.22
2022-08-11T02:02:54.098Z,102256.63
2022-08-11T02:05:52.443Z,102256.13
2022-08-11T02:08:52.013Z,102256.97
2022-08-11T02:11:37.538Z,102240.56
2022-08-11T02:14:16.625Z,102262.34
2022-08-11T02:16:55.306Z,102238.34
2022-08-11T02:20:08.291Z,102257.69
2022-08-11T02:23:59.633Z,102264.78
2022-08-11T02:26:23.219Z,102252.69
2022-08-11T02:28:58.641Z,102254.56
2022-08-11T02:32:24.374Z,102249.19
2022-08-11T02:35:04.220Z,102246.25
2022-08-11T02:37:33.767Z,102249.03
2022-08-11T02:40:25.301Z,102254.19
2022-08-11T02:43:16.246Z,102250.03
2022-08-11T02:46:17.967Z,102221.31
2022-08-11T02:49:06.946Z,102243.78
2022-08-11T02:51:55.752Z,102248.63
2022-08-11T02:54:59.174Z,102254.50
2022-08-11T02:57:35.188Z,102245.50
2022-08-11T03:00:09.200Z,102252.75
2022-08-11T03:02:57.629Z,102255.84
2022-08-11T03:05:50.527Z,102224.03
2022-08-11T03:08:57.926Z,102253.44
2022-08-11T03:12:17.275Z,102255.81
2022-08-11T03:15:13.159Z,102247.19
2022-08-11T03:17:57.785Z,102245.81
2022-08-11T03:20:33.144Z,102254.25
2022-08-11T03:23:19.620Z,102249.41
2022-08-11T03:25:55.610Z,102245.03
2022-08-11T03:28:33.937Z,102251.97
2022-08-11T03:31:12.355Z,102255.91
2022-08-11T03:34:06.672Z,102247.28
2022-08-11T03:37:16.486Z,102256.09
2022-08-11T03:40:00.111Z,102252.09
2022-08-11T03:42:46.358Z,102252.06
2022-08-11T03:45:28.624Z,102243.06
2022-08-11T03:48:08.131Z,102244.28
2022-08-11T03:51:11.239Z,102245.31
2022-08-11T03:53:56.641Z,102245.47
2022-08-11T03:57:10.656Z,102239.22
2022-08-11T03:59:59.514Z,102247.53
2022-08-11T04:02:50.855Z,102245.97
2022-08-11T04:05:39.037Z,102245.97
2022-08-11T04:08:17.580Z,102249.03
2022-08-11T04:11:12.227Z,102239.22
2022-08-11T04:14:29.052Z,102249.72
2022-08-11T04:17:22.761Z,102248.28
2022-08-11T04:20:17.816Z,102246.56
2022-08-11T04:23:03.611Z,102247.75
2022-08-11T04:25:58.920Z,102241.53
2022-08-11T04:28:43.069Z,102248.94
2022-08-11T04:31:49.607Z,102241.69
2022-08-11T04:34:56.293Z,102247.91
2022-08-11T04:38:00.360Z,102241.38
2022-08-11T04:41:00.523Z,102241.91
2022-08-11T04:43:27.477Z,102242.59
2022-08-11T04:46:09.238Z,102241.56
2022-08-11T04:49:25.659Z,102242.59
2022-08-11T04:52:50.544Z,102248.28
2022-08-11T04:55:51.383Z,102242.47
2022-08-11T04:58:55.921Z,102241.84
2022-08-11T05:01:43.736Z,102235.53
2022-08-11T05:05:00.801Z,102235.66
2022-08-11T05:07:58.292Z,102236.13
2022-08-11T05:10:24.856Z,102233.88
2022-08-11T05:13:45.685Z,102200.75
2022-08-11T05:16:34.247Z,102228.16
2022-08-11T05:19:21.492Z,102225.13
2022-08-11T05:22:15.350Z,102233.78
2022-08-11T05:25:10.772Z,102230.56
2022-08-11T05:28:12.756Z,102231.09
2022-08-11T05:31:01.719Z,102228.44
2022-08-11T05:33:55.597Z,102227.38
2022-08-11T05:36:30.086Z,102225.09
2022-08-11T05:39:36.493Z,102217.50
2022-08-11T05:42:30.129Z,102225.34
2022-08-11T05:45:57.323Z,102228.66
2022-08-11T05:48:37.528Z,102228.06
2022-08-11T05:51:30.178Z,102229.91
2022-08-11T05:54:29.105Z,102224.53
2022-08-11T05:57:02.147Z,102231.38
2022-08-11T05:59:31.389Z,102221.06
2022-08-11T06:02:10.498Z,102225.13
2022-08-11T06:04:38.386Z,102225.81
2022-08-11T06:07:11.667Z,102202.06
2022-08-11T06:09:47.459Z,102233.91
2022-08-11T06:12:26.320Z,102234.38
2022-08-11T06:14:57.973Z,102231.53
2022-08-11T06:17:38.603Z,102242.47
2022-08-11T06:20:12.419Z,102241.94
2022-08-11T06:22:42.092Z,102238.31
2022-08-11T06:25:10.604Z,102214.16
2022-08-11T06:27:38.651Z,102239.00
2022-08-11T06:30:13.527Z,102235.88
2022-08-11T06:32:43.593Z,102236.69
2022-08-11T06:35:22.668Z,102239.66
2022-08-11T06:38:09.661Z,102232.06
2022-08-11T06:40:43.766Z,102223.84
2022-08-11T06:43:18.924Z,102223.97
2022-08-11T06:46:03.345Z,102221.41
2022-08-11T06:48:32.885Z,102240.25
2022-08-11T06:51:12.381Z,102230.66
2022-08-11T06:54:03.453Z,102241.31
2022-08-11T06:57:28.910Z,102231.34
2022-08-11T07:00:06.922Z,102227.97
2022-08-11T07:02:48.081Z,102239.72
2022-08-11T07:05:28.722Z,102236.06
2022-08-11T07:08:51.352Z,102234.34
2022-08-11T07:11:57.641Z,102245.72
2022-08-11T07:14:46.577Z,102236.06
2022-08-11T07:17:21.452Z,102204.53
2022-08-11T07:20:32.330Z,102231.19
2022-08-11T07:23:20.801Z,102230.44
2022-08-11T07:26:11.483Z,102231.47
2022-08-11T07:28:59.053Z,102228.25
2022-08-11T07:31:42.060Z,102229.72
2022-08-11T07:34:38.556Z,102226.63
2022-08-11T07:37:13.758Z,102227.81
2022-08-11T07:39:44.731Z,102207.88
2022-08-11T07:42:14.996Z,102232.38
2022-08-11T07:45:01.625Z,102237.56
2022-08-11T07:47:47.854Z,102233.66
2022-08-11T07:50:33.455Z,102230.06
2022-08-11T07:53:02.720Z,102227.34
2022-08-11T07:55:49.565Z,102233.47
2022-08-11T07:58:45.534Z,102226.53
2022-08-11T08:01:43.286Z,102224.19
2022-08-11T08:04:33.772Z,102219.13
2022-08-11T08:07:21.589Z,102230.72
2022-08-11T08:10:08.550Z,102226.94
2022-08-11T08:12:54.878Z,102241.56
2022-08-11T08:15:41.314Z,102224.63
2022-08-11T08:18:26.803Z,102234.00
2022-08-11T08:20:56.866Z,102242.91
2022-08-11T08:23:35.825Z,102237.38
2022-08-11T08:26:05.701Z,102226.28
2022-08-11T08:28:46.600Z,102235.03
2022-08-11T08:31:14.433Z,102236.22
2022-08-11T08:33:44.914Z,102228.41
2022-08-11T08:36:17.013Z,102228.81
2022-08-11T08:38:51.157Z,102230.81
2022-08-11T08:41:22.407Z,102226.50
2022-08-11T08:43:53.699Z,102238.78
2022-08-11T08:46:25.607Z,102235.13
2022-08-11T08:48:53.733Z,102227.09
2022-08-11T08:51:57.908Z,102232.47
2022-08-11T08:54:34.043Z,102224.28
2022-08-11T08:57:05.397Z,102213.88
2022-08-11T08:59:48.600Z,102228.34
2022-08-11T09:02:34.340Z,102227.47
2022-08-11T09:05:04.029Z,102226.13
2022-08-11T09:07:38.436Z,102214.78
2022-08-11T09:10:08.463Z,102229.56
2022-08-11T09:12:39.022Z,102229.50
2022-08-11T09:15:08.142Z,102224.63
2022-08-11T09:17:37.058Z,102224.28
2022-08-11T09:20:13.684Z,102226.09
2022-08-11T09:24:02.049Z,102225.53
2022-08-11T09:26:12.239Z,102222.09
2022-08-11T09:28:39.555Z,102189.09
2022-08-11T09:31:07.172Z,102210.16
2022-08-11T09:33:36.453Z,102209.34
2022-08-11T09:36:23.732Z,102210.50
2022-08-11T09:39:10.457Z,102177.69
2022-08-11T09:42:23.617Z,102216.22
2022-08-11T09:44:47.059Z,102200.56
2022-08-11T09:47:18.693Z,102205.03
2022-08-11T09:49:46.581Z,102178.44
2022-08-11T09:52:15.322Z,102202.88
2022-08-11T09:54:49.872Z,102177.88
2022-08-11T09:57:38.493Z,102199.13
2022-08-11T10:00:13.142Z,102195.91
2022-08-11T10:02:47.404Z,102196.50
2022-08-11T10:05:39.243Z,102190.78
2022-08-11T10:08:09.132Z,102172.22
2022-08-11T10:10:37.557Z,102182.34
2022-08-11T10:14:29.352Z,102190.97
2022-08-11T10:16:15.675Z,102187.94
2022-08-11T10:18:52.748Z,102177.25
2022-08-11T10:21:36.576Z,102176.97
2022-08-11T10:24:24.296Z,102165.38
2022-08-11T10:26:56.735Z,102181.00
2022-08-11T10:29:55.148Z,102170.06
2022-08-11T10:32:57.851Z,102170.13
2022-08-11T10:35:29.555Z,102170.19
2022-08-11T10:38:15.791Z,102163.91
2022-08-11T10:40:46.962Z,102177.06
2022-08-11T10:44:01.897Z,102163.44
2022-08-11T10:46:29.793Z,102161.78
2022-08-11T10:48:58.775Z,102171.69
2022-08-11T10:51:51.170Z,102163.03
2022-08-11T10:54:42.256Z,102171.75
2022-08-11T10:57:29.264Z,102157.66
2022-08-11T10:59:57.869Z,102150.28
2022-08-11T11:02:27.166Z,102153.97
2022-08-11T11:05:09.628Z,102151.63
2022-08-11T11:07:44.376Z,102153.97
2022-08-11T11:10:11.394Z,102155.63
2022-08-11T11:13:04.810Z,102146.66
2022-08-11T11:15:53.471Z,102144.25
2022-08-11T11:18:24.180Z,102138.75
2022-08-11T11:20:53.836Z,102140.75
2022-08-11T11:23:23.235Z,102144.09
2022-08-11T11:26:10.631Z,102144.94
2022-08-11T11:28:58.696Z,102139.28
2022-08-11T11:31:56.221Z,102140.13
2022-08-11T11:34:59.910Z,102145.38
2022-08-11T11:37:29.345Z,102136.66
2022-08-11T11:39:57.858Z,102114.34
2022-08-11T11:42:25.498Z,102129.44
2022-08-11T11:44:55.790Z,102126.03
2022-08-11T11:47:24.032Z,102131.16
2022-08-11T11:49:51.107Z,102124.09
2022-08-11T11:52:23.711Z,102119.53
2022-08-11T11:54:55.222Z,102121.00
2022-08-11T11:57:41.658Z,102102.84
2022-08-11T12:00:44.268Z,102105.06
2022-08-11T12:03:14.055Z,102107.84
2022-08-11T12:05:43.780Z,102090.28
2022-08-11T12:08:16.421Z,102091.63
2022-08-11T12:11:36.478Z,102099.00
2022-08-11T12:14:10.362Z,102097.84
2022-08-11T12:16:40.674Z,102094.41
2022-08-11T12:19:17.991Z,102086.16
2022-08-11T12:22:04.255Z,102090.03
2022-08-11T12:24:53.083Z,102072.44
2022-08-11T12:27:24.089Z,102088.13
2022-08-11T12:29:56.254Z,102070.22
2022-08-11T12:32:35.059Z,102082.78
2022-08-11T12:35:02.301Z,102071.09
2022-08-11T12:37:43.791Z,102062.81
2022-08-11T12:40:42.667Z,102072.75
2022-08-11T12:43:39.266Z,102069.22
2022-08-11T12:46:34.059Z,102060.16
2022-08-11T12:49:27.149Z,102052.19
2022-08-11T12:52:13.750Z,102055.38
2022-08-11T12:55:14.133Z,102052.19
2022-08-11T12:58:06.092Z,102051.06
2022-08-11T13:00:54.725Z,102065.75
2022-08-11T13:03:43.932Z,102048.75
2022-08-11T13:06:23.219Z,102043.25
2022-08-11T13:08:50.587Z,102041.28
2022-08-11T13:11:56.153Z,102041.59
2022-08-11T13:14:24.128Z,102041.03
2022-08-11T13:17:10.539Z,102048.19
2022-08-11T13:19:38.201Z,102034.00
2022-08-11T13:22:07.616Z,102036.00
2022-08-11T13:24:35.933Z,102027.50
2022-08-11T13:27:05.129Z,102021.00
2022-08-11T13:29:36.034Z,102017.88
2022-08-11T13:32:03.473Z,102012.19
2022-08-11T13:34:41.692Z,102014.75
2022-08-11T13:37:12.122Z,102008.81
2022-08-11T13:39:47.519Z,102020.66
2022-08-11T13:42:18.090Z,102013.56
2022-08-11T13:44:48.614Z,102002.47
2022-08-11T13:47:16.207Z,102014.31
2022-08-11T13:49:47.964Z,102014.63
2022-08-11T13:52:17.492Z,102011.53
2022-08-11T13:54:51.126Z,102007.59
2022-08-11T13:58:08.755Z,101999.97
2022-08-11T14:00:13.385Z,101996.59
2022-08-11T14:02:56.991Z,102001.09
2022-08-11T14:05:29.437Z,102007.03
2022-08-11T14:08:02.746Z,101997.38
2022-08-11T14:10:33.006Z,101992.78
2022-08-11T14:13:27.047Z,101991.13
2022-08-11T14:15:54.288Z,101998.72
2022-08-11T14:18:30.822Z,101992.44
2022-08-11T14:21:20.069Z,101982.56
2022-08-11T14:23:50.896Z,101983.69
2022-08-11T14:26:29.508Z,101980.28
2022-08-11T14:29:08.466Z,101985.09
2022-08-11T14:31:39.079Z,101976.38
2022-08-11T14:34:10.357Z,101979.47
2022-08-11T14:36:43.343Z,101961.38
2022-08-11T14:39:18.312Z,101984.00
2022-08-11T14:42:17.953Z,101969.31
2022-08-11T14:45:22.766Z,101973.81
2022-08-11T14:47:53.432Z,101965.94
2022-08-11T14:50:25.614Z,101969.88
2022-08-11T14:53:00.998Z,101945.22
2022-08-11T14:55:48.690Z,101959.47
2022-08-11T14:58:19.862Z,101962.22
2022-08-11T15:00:49.908Z,101969.00
2022-08-11T15:03:22.160Z,101953.72
2022-08-11T15:05:57.641Z,101950.34
2022-08-11T15:08:48.581Z,101942.63
2022-08-11T15:11:37.463Z,101948.88
2022-08-11T15:14:07.206Z,101950.88
2022-08-11T15:16:54.722Z,101944.38
2022-08-11T15:19:21.734Z,101938.72
2022-08-11T15:22:07.853Z,101932.50
2022-08-11T15:24:36.468Z,101937.56
2022-08-11T15:27:32.537Z,101932.75
2022-08-11T15:30:33.217Z,101930.75
2022-08-11T15:33:23.425Z,101938.94
2022-08-11T15:36:10.594Z,101934.34
2022-08-11T15:38:44.500Z,101925.31
2022-08-11T15:41:35.968Z,101929.81
2022-08-11T15:44:58.986Z,101914.56
2022-08-11T15:47:21.329Z,101919.75
2022-08-11T15:50:10.487Z,101923.72
2022-08-11T15:52:47.606Z,101927.13
2022-08-11T15:55:14.964Z,101921.72
2022-08-11T15:58:02.095Z,101926.44
2022-08-11T16:00:49.690Z,101916.81
2022-08-11T16:04:06.321Z,101906.06
2022-08-11T16:06:37.081Z,101901.53
2022-08-11T16:09:18.014Z,101907.19
2022-08-11T16:11:49.336Z,101890.75
2022-08-11T16:14:36.332Z,101905.47
2022-08-11T16:17:06.042Z,101904.63
2022-08-11T16:19:36.637Z,101897.78
2022-08-11T16:22:09.679Z,101887.84
2022-08-11T16:27:06.207Z,101888.44
2022-08-11T16:27:34.127Z,101887.28
2022-08-11T16:30:02.062Z,101883.06
2022-08-11T16:32:31.262Z,101886.72
2022-08-11T16:35:20.563Z,101894.09
2022-08-11T16:38:07.139Z,101888.09
2022-08-11T16:40:35.029Z,101888.38
2022-08-11T16:43:24.127Z,101877.94
2022-08-11T16:46:11.586Z,101858.34
2022-08-11T16:48:41.460Z,101873.72
2022-08-11T16:51:11.901Z,101885.88
2022-08-11T16:53:54.669Z,101878.50
2022-08-11T16:56:35.231Z,101879.31
2022-08-11T16:59:15.471Z,101866.56
2022-08-11T17:01:53.424Z,101878.66
2022-08-11T17:05:00.263Z,101883.44
2022-08-11T17:07:48.413Z,101872.13
2022-08-11T17:10:55.443Z,101873.03
2022-08-11T17:13:31.884Z,101862.91
2022-08-11T17:16:08.782Z,101875.91
2022-08-11T17:19:17.241Z,101868.22
2022-08-11T17:22:07.334Z,101862.31
2022-08-11T17:24:41.825Z,101869.28
2022-08-11T17:27:09.736Z,101871.69
2022-08-11T17:29:53.746Z,101871.25
2022-08-11T17:33:00.577Z,101868.91
2022-08-11T17:35:36.129Z,101872.78
2022-08-11T17:38:16.518Z,101867.34
2022-08-11T17:41:08.649Z,101866.75
2022-08-11T17:43:54.372Z,101866.09
2022-08-11T17:46:40.032Z,101871.94
2022-08-11T17:49:09.836Z,101861.13
2022-08-11T17:51:57.443Z,101856.56
2022-08-11T17:54:44.394Z,101863.84
2022-08-11T17:57:33.365Z,101869.69
2022-08-11T18:00:02.500Z,101868.22
2022-08-11T18:03:01.193Z,101865.59
2022-08-11T18:05:34.067Z,101868.59
2022-08-11T18:08:23.872Z,101869.41
2022-08-11T18:11:11.418Z,101870.38
2022-08-11T18:14:07.544Z,101879.00
2022-08-11T18:16:53.055Z,101874.59
2022-08-11T18:19:38.617Z,101883.25
2022-08-11T18:22:40.443Z,101879.19
2022-08-11T18:25:32.514Z,101876.22
2022-08-11T18:28:19.700Z,101881.44
2022-08-11T18:31:13.052Z,101882.09
2022-08-11T18:34:07.511Z,101885.88
2022-08-11T18:37:27.265Z,101884.25
2022-08-11T18:40:22.346Z,101877.00
2022-08-11T18:43:09.655Z,101885.03
2022-08-11T18:46:06.485Z,101883.63
2022-08-11T18:48:57.949Z,101895.28
2022-08-11T18:51:47.196Z,101897.03
2022-08-11T18:54:34.895Z,101907.84
2022-08-11T18:57:25.321Z,101892.97
2022-08-11T19:00:12.048Z,101903.75
2022-08-11T19:02:59.314Z,101904.63
2022-08-11T19:06:33.713Z,101908.31
2022-08-11T19:08:58.808Z,101903.19
2022-08-11T19:11:46.933Z,101902.97
2022-08-11T19:14:34.468Z,101910.31
2022-08-11T19:17:44.713Z,101918.72
2022-08-11T19:20:31.946Z,101921.53
2022-08-11T19:23:20.022Z,101921.53
2022-08-11T19:26:06.563Z,101919.56
2022-08-11T19:28:54.173Z,101930.28
2022-08-11T19:31:44.338Z,101928.50
2022-08-11T19:34:33.809Z,101925.19
2022-08-11T19:37:24.414Z,101932.22
2022-08-11T19:40:17.970Z,101932.81
2022-08-11T19:43:04.368Z,101937.03
2022-08-11T19:46:05.249Z,101938.72
2022-08-11T19:48:51.394Z,101932.19
2022-08-11T19:51:42.381Z,101921.13
2022-08-11T19:54:29.288Z,101929.78
2022-08-11T19:57:15.402Z,101930.34
2022-08-11T20:00:01.361Z,101945.50
2022-08-11T20:02:48.741Z,101924.19
2022-08-11T20:05:36.244Z,101942.06
2022-08-11T20:08:23.931Z,101934.63
2022-08-11T20:11:10.032Z,101948.66
2022-08-11T20:13:59.971Z,101945.03
2022-08-11T20:16:45.840Z,101944.50
2022-08-11T20:19:55.406Z,101947.34
2022-08-11T20:22:38.237Z,101940.78
2022-08-11T20:25:28.419Z,101946.84
2022-08-11T20:28:14.656Z,101944.56
2022-08-11T20:31:03.683Z,101938.81
2022-08-11T20:33:50.781Z,101945.31
2022-08-11T20:36:38.482Z,101942.16
2022-08-11T20:39:24.796Z,101951.41
2022-08-11T20:42:11.566Z,101946.94
2022-08-11T20:44:57.890Z,101945.94
2022-08-11T20:47:59.316Z,101947.66
2022-08-11T20:50:46.611Z,101946.00
2022-08-11T20:53:36.154Z,101959.78
2022-08-11T20:56:28.502Z,101949.72
2022-08-11T20:59:17.749Z,101925.31
2022-08-11T21:02:09.986Z,101950.84
2022-08-11T21:04:57.686Z,101948.31
2022-08-11T21:07:55.357Z,101958.19
2022-08-11T21:10:51.466Z,101961.03
2022-08-11T21:13:39.288Z,101962.97
2022-08-11T21:16:27.594Z,101962.16
2022-08-11T21:20:00.646Z,101967.97
2022-08-11T21:22:59.190Z,101958.75
2022-08-11T21:26:05.881Z,101963.28
2022-08-11T21:28:53.220Z,101961.38
2022-08-11T21:31:39.904Z,101952.16
2022-08-11T21:34:28.521Z,101966.75
2022-08-11T21:37:14.678Z,101965.88
2022-08-11T21:40:01.782Z,101963.06
2022-08-11T21:42:50.765Z,101956.00
2022-08-11T21:45:36.828Z,101945.94
2022-08-11T21:48:25.396Z,101954.31
2022-08-11T21:51:11.023Z,101965.88
2022-08-11T21:53:57.683Z,101960.31
2022-08-11T21:56:47.356Z,101960.75
2022-08-11T21:59:40.738Z,101962.44
2022-08-11T22:02:26.784Z,101940.13
2022-08-11T22:05:12.409Z,101953.00
2022-08-11T22:08:00.791Z,101963.06
2022-08-11T22:10:48.716Z,101968.22
2022-08-11T22:13:33.754Z,101964.34
2022-08-11T22:16:19.360Z,101943.50
2022-08-11T22:19:08.657Z,101957.47
2022-08-11T22:21:59.605Z,101949.72
2022-08-11T22:24:51.420Z,101953.56
2022-08-11T22:27:37.018Z,101945.41
2022-08-11T22:30:24.895Z,101964.28
2022-08-11T22:33:10.945Z,101946.72
2022-08-11T22:35:58.926Z,101958.91
2022-08-11T22:38:47.425Z,101943.22
2022-08-11T22:41:33.182Z,101955.00
2022-08-11T22:44:18.677Z,101964.88
2022-08-11T22:47:04.018Z,101960.97
2022-08-11T22:49:57.171Z,101928.34
2022-08-11T22:52:44.346Z,101948.75
2022-08-11T22:55:29.831Z,101947.41
2022-08-11T22:58:15.040Z,101948.25
2022-08-11T23:01:01.125Z,101935.81
2022-08-11T23:03:50.355Z,101949.72
2022-08-11T23:06:39.339Z,101947.53
2022-08-11T23:09:26.494Z,101905.00
2022-08-11T23:12:12.663Z,101893.59
2022-08-11T23:15:00.219Z,101949.56
2022-08-11T23:17:46.465Z,101942.91
2022-08-11T23:20:46.390Z,101959.16
2022-08-11T23:23:40.546Z,101940.66
2022-08-11T23:26:26.300Z,101949.47
2022-08-11T23:29:14.559Z,101940.44
2022-08-11T23:32:04.240Z,101949.41
2022-08-11T23:35:37.088Z,101941.25
2022-08-11T23:38:00.024Z,101951.28
2022-08-11T23:40:48.129Z,101943.16
2022-08-11T23:43:40.905Z,101940.31
2022-08-11T23:46:26.341Z,101946.31
2022-08-11T23:49:20.123Z,101918.13
2022-08-11T23:52:06.690Z,101936.19
2022-08-11T23:54:53.915Z,101942.19
2022-08-11T23:57:47.517Z,101944.72
